createdAt,value
2023-04-07T00:00:04.517Z,9.00
2023-04-07T00:02:39.353Z,8.90
2023-04-07T00:05:07.724Z,8.60
2023-04-07T00:07:39.587Z,8.80
2023-04-07T00:10:17.620Z,8.90
2023-04-07T00:12:45.290Z,9.18
2023-04-07T00:15:12.879Z,8.80
2023-04-07T00:17:40.488Z,8.88
2023-04-07T00:20:09.231Z,8.40
2023-04-07T00:22:36.746Z,8.68
2023-04-07T00:25:04.480Z,9.02
2023-04-07T00:27:33.364Z,8.27
2023-04-07T00:30:01.087Z,8.00
2023-04-07T00:32:28.772Z,9.38
2023-04-07T00:34:56.732Z,8.90
2023-04-07T00:37:25.493Z,8.45
2023-04-07T00:39:53.457Z,9.10
2023-04-07T00:42:21.225Z,8.95
2023-04-07T00:44:50.083Z,8.52
2023-04-07T00:47:17.835Z,8.93
2023-04-07T00:49:45.391Z,9.18
2023-04-07T00:52:13.297Z,9.13
2023-04-07T00:54:43.525Z,8.40
2023-04-07T00:57:11.232Z,9.23
2023-04-07T00:59:39.274Z,8.50
2023-04-07T01:02:17.139Z,8.70
2023-04-07T01:04:50.356Z,8.97
2023-04-07T01:07:23.636Z,8.77
2023-04-07T01:10:05.674Z,8.20
2023-04-07T01:12:45.635Z,8.77
2023-04-07T01:15:16.107Z,8.32
2023-04-07T01:17:52.897Z,8.37
2023-04-07T01:20:23.737Z,8.50
2023-04-07T01:22:59.472Z,8.30
2023-04-07T01:25:58.462Z,7.80
2023-04-07T01:28:50.880Z,8.00
2023-04-07T01:31:19.924Z,8.50
2023-04-07T01:33:49.682Z,8.20
2023-04-07T01:36:17.873Z,8.48
2023-04-07T01:38:46.740Z,8.10
2023-04-07T01:41:16.794Z,8.23
2023-04-07T01:43:46.301Z,7.57
2023-04-07T01:46:14.394Z,7.78
2023-04-07T01:48:43.537Z,8.18
2023-04-07T01:51:17.204Z,7.78
2023-04-07T01:53:45.462Z,7.18
2023-04-07T01:56:13.260Z,7.67
2023-04-07T01:58:40.858Z,7.93
2023-04-07T02:01:11.900Z,7.90
2023-04-07T02:03:49.027Z,7.53
2023-04-07T02:06:20.666Z,7.75
2023-04-07T02:08:53.635Z,7.70
2023-04-07T02:11:23.600Z,7.00
2023-04-07T02:13:55.457Z,7.05
2023-04-07T02:16:23.705Z,7.03
2023-04-07T02:18:54.761Z,7.50
2023-04-07T02:21:23.460Z,6.87
2023-04-07T02:23:51.188Z,7.03
2023-04-07T02:26:18.697Z,7.07
2023-04-07T02:28:46.262Z,7.35
2023-04-07T02:31:14.238Z,6.97
2023-04-07T02:33:41.811Z,7.43
2023-04-07T02:36:10.896Z,6.70
2023-04-07T02:38:38.429Z,7.15
2023-04-07T02:41:06.504Z,6.53
2023-04-07T02:43:34.045Z,7.10
2023-04-07T02:46:01.696Z,6.63
2023-04-07T02:48:30.956Z,6.18
2023-04-07T02:50:58.520Z,6.32
2023-04-07T02:53:27.582Z,6.72
2023-04-07T02:55:55.216Z,6.32
2023-04-07T02:58:23.097Z,6.73
2023-04-07T03:00:51.061Z,6.45
2023-04-07T03:03:24.785Z,6.18
2023-04-07T03:06:18.696Z,6.80
2023-04-07T03:09:01.992Z,6.32
2023-04-07T03:11:29.505Z,6.13
2023-04-07T03:13:59.346Z,6.07
2023-04-07T03:16:28.710Z,6.40
2023-04-07T03:19:09.175Z,6.35
2023-04-07T03:21:40.906Z,6.55
2023-04-07T03:24:10.976Z,6.50
2023-04-07T03:26:38.507Z,6.32
2023-04-07T03:29:11.074Z,6.32
2023-04-07T03:31:41.864Z,6.20
2023-04-07T03:34:09.630Z,5.88
2023-04-07T03:36:37.200Z,6.20
2023-04-07T03:39:06.621Z,6.70
2023-04-07T03:41:35.565Z,6.05
2023-04-07T03:44:03.139Z,5.95
2023-04-07T03:46:33.026Z,6.20
2023-04-07T03:49:01.204Z,6.60
2023-04-07T03:51:30.457Z,6.50
2023-04-07T03:53:59.743Z,6.03
2023-04-07T03:56:42.226Z,6.40
2023-04-07T03:59:10.204Z,6.22
2023-04-07T04:01:46.374Z,6.50
2023-04-07T04:04:16.939Z,6.70
2023-04-07T04:06:44.912Z,6.18
2023-04-07T04:09:21.818Z,6.47
2023-04-07T04:11:51.819Z,6.15
2023-04-07T04:14:19.816Z,6.30
2023-04-07T04:16:58.594Z,5.70
2023-04-07T04:19:46.432Z,6.85
2023-04-07T04:22:22.392Z,6.00
2023-04-07T04:24:53.976Z,5.93
2023-04-07T04:27:25.079Z,6.13
2023-04-07T04:29:59.580Z,5.97
2023-04-07T04:32:36.814Z,5.97
2023-04-07T04:35:04.822Z,6.03
2023-04-07T04:37:35.546Z,6.10
2023-04-07T04:40:09.402Z,6.63
2023-04-07T04:42:39.272Z,6.00
2023-04-07T04:45:09.667Z,6.18
2023-04-07T04:47:38.933Z,6.22
2023-04-07T04:50:09.148Z,6.90
2023-04-07T04:52:39.487Z,6.53
2023-04-07T04:55:10.517Z,6.38
2023-04-07T04:57:40.072Z,6.60
2023-04-07T05:00:15.816Z,6.50
2023-04-07T05:02:46.858Z,6.70
2023-04-07T05:05:16.010Z,6.13
2023-04-07T05:07:44.670Z,6.00
2023-04-07T05:10:14.860Z,6.05
2023-04-07T05:12:49.830Z,6.38
2023-04-07T05:15:17.582Z,6.28
2023-04-07T05:17:50.408Z,6.63
2023-04-07T05:20:23.058Z,6.70
2023-04-07T05:22:51.189Z,6.32
2023-04-07T05:25:21.876Z,6.38
2023-04-07T05:27:54.052Z,6.22
2023-04-07T05:30:21.826Z,7.00
2023-04-07T05:32:49.599Z,6.47
2023-04-07T05:35:28.736Z,6.00
2023-04-07T05:37:58.228Z,5.93
2023-04-07T05:40:26.026Z,5.63
2023-04-07T05:42:55.371Z,6.40
2023-04-07T05:45:24.568Z,5.95
2023-04-07T05:47:52.280Z,5.70
2023-04-07T05:50:27.120Z,6.18
2023-04-07T05:52:56.130Z,5.93
2023-04-07T05:55:27.118Z,5.73
2023-04-07T05:57:57.107Z,6.55
2023-04-07T06:00:28.716Z,6.07
2023-04-07T06:03:04.532Z,5.68
2023-04-07T06:05:43.583Z,7.57
2023-04-07T06:08:12.562Z,5.93
2023-04-07T06:10:41.356Z,5.88
2023-04-07T06:13:10.308Z,6.45
2023-04-07T06:15:37.850Z,5.85
2023-04-07T06:18:05.626Z,5.80
2023-04-07T06:20:33.757Z,6.07
2023-04-07T06:23:01.649Z,6.43
2023-04-07T06:25:29.280Z,6.40
2023-04-07T06:27:57.076Z,6.22
2023-04-07T06:30:26.036Z,6.65
2023-04-07T06:32:53.759Z,7.13
2023-04-07T06:35:22.591Z,6.60
2023-04-07T06:37:50.296Z,6.40
2023-04-07T06:40:18.020Z,7.13
2023-04-07T06:42:45.636Z,6.38
2023-04-07T06:45:23.865Z,6.57
2023-04-07T06:47:52.817Z,6.65
2023-04-07T06:50:22.181Z,6.20
2023-04-07T06:52:49.810Z,6.45
2023-04-07T06:55:17.380Z,6.75
2023-04-07T06:57:45.000Z,6.40
2023-04-07T07:00:13.006Z,6.32
2023-04-07T07:02:40.899Z,6.35
2023-04-07T07:05:11.310Z,6.10
2023-04-07T07:07:38.870Z,5.50
2023-04-07T07:10:07.703Z,5.93
2023-04-07T07:12:35.320Z,6.32
2023-04-07T07:15:03.670Z,6.35
2023-04-07T07:17:31.360Z,6.40
2023-04-07T07:19:58.976Z,5.82
2023-04-07T07:22:27.896Z,5.80
2023-04-07T07:24:55.563Z,5.65
2023-04-07T07:27:23.154Z,5.47
2023-04-07T07:29:50.786Z,5.40
2023-04-07T07:32:18.323Z,6.00
2023-04-07T07:34:46.010Z,5.67
2023-04-07T07:37:13.660Z,5.55
2023-04-07T07:39:42.668Z,6.28
2023-04-07T07:42:10.267Z,5.45
2023-04-07T07:44:37.904Z,5.20
2023-04-07T07:47:05.486Z,5.50
2023-04-07T07:49:33.051Z,5.43
2023-04-07T07:52:01.053Z,5.60
2023-04-07T07:54:28.641Z,5.20
2023-04-07T07:56:57.540Z,5.28
2023-04-07T07:59:25.185Z,5.67
2023-04-07T08:01:52.793Z,5.57
2023-04-07T08:04:20.726Z,5.35
2023-04-07T08:06:48.403Z,5.43
2023-04-07T08:09:15.950Z,5.70
2023-04-07T08:11:43.586Z,5.23
2023-04-07T08:14:12.508Z,5.70
2023-04-07T08:16:40.504Z,5.45
2023-04-07T08:19:08.230Z,5.65
2023-04-07T08:21:35.993Z,5.30
2023-04-07T08:24:03.705Z,5.87
2023-04-07T08:26:31.277Z,5.65
2023-04-07T08:28:59.121Z,5.43
2023-04-07T08:31:28.360Z,5.00
2023-04-07T08:33:58.147Z,5.10
2023-04-07T08:36:26.117Z,5.20
2023-04-07T08:38:53.746Z,5.30
2023-04-07T08:41:28.714Z,5.43
2023-04-07T08:43:58.776Z,5.30
2023-04-07T08:46:28.526Z,6.32
2023-04-07T08:48:58.072Z,5.63
2023-04-07T08:51:33.409Z,5.50
2023-04-07T08:54:07.250Z,5.38
2023-04-07T08:56:35.210Z,5.30
2023-04-07T08:59:03.439Z,5.90
2023-04-07T09:01:33.325Z,5.17
2023-04-07T09:04:03.025Z,5.28
2023-04-07T09:06:31.951Z,5.65
2023-04-07T09:08:59.602Z,5.35
2023-04-07T09:11:27.920Z,5.63
2023-04-07T09:13:56.322Z,5.50
2023-04-07T09:16:24.739Z,5.43
2023-04-07T09:18:54.354Z,6.13
2023-04-07T09:21:21.905Z,5.55
2023-04-07T09:23:51.440Z,6.38
2023-04-07T09:26:24.375Z,6.73
2023-04-07T09:28:55.007Z,6.60
2023-04-07T09:31:22.850Z,6.32
2023-04-07T09:33:51.637Z,6.20
2023-04-07T09:36:20.644Z,5.60
2023-04-07T09:38:48.909Z,5.77
2023-04-07T09:41:17.644Z,5.50
2023-04-07T09:43:47.172Z,6.15
2023-04-07T09:46:16.530Z,5.82
2023-04-07T09:48:45.905Z,5.20
2023-04-07T09:51:15.744Z,5.53
2023-04-07T09:53:47.669Z,5.20
2023-04-07T09:56:17.154Z,5.35
2023-04-07T09:58:46.465Z,5.22
2023-04-07T10:01:16.728Z,4.85
2023-04-07T10:03:46.631Z,5.63
2023-04-07T10:06:14.700Z,5.63
2023-04-07T10:08:45.085Z,6.00
2023-04-07T10:11:12.885Z,5.45
2023-04-07T10:13:41.308Z,6.73
2023-04-07T10:16:09.599Z,5.20
2023-04-07T10:18:38.062Z,5.88
2023-04-07T10:21:07.894Z,5.70
2023-04-07T10:23:50.037Z,5.50
2023-04-07T10:26:20.906Z,5.97
2023-04-07T10:28:54.618Z,5.20
2023-04-07T10:31:24.076Z,5.85
2023-04-07T10:33:53.452Z,5.78
2023-04-07T10:36:21.955Z,5.80
2023-04-07T10:39:22.412Z,5.43
2023-04-07T10:41:51.684Z,5.57
2023-04-07T10:44:46.537Z,5.55
2023-04-07T10:47:14.187Z,5.40
2023-04-07T10:50:18.834Z,5.40
2023-04-07T10:52:47.462Z,5.80
2023-04-07T10:55:34.464Z,5.80
2023-04-07T10:58:15.521Z,5.53
2023-04-07T11:00:43.655Z,5.68
2023-04-07T11:03:13.953Z,5.80
2023-04-07T11:05:41.840Z,5.73
2023-04-07T11:08:09.715Z,6.10
2023-04-07T11:10:39.581Z,6.60
2023-04-07T11:13:08.762Z,6.03
2023-04-07T11:15:40.225Z,5.75
2023-04-07T11:18:10.917Z,5.50
2023-04-07T11:20:47.227Z,5.88
2023-04-07T11:23:15.664Z,5.78
2023-04-07T11:25:46.491Z,5.20
2023-04-07T11:28:14.971Z,5.25
2023-04-07T11:30:53.860Z,5.13
2023-04-07T11:33:22.987Z,5.47
2023-04-07T11:35:52.642Z,5.38
2023-04-07T11:38:20.992Z,5.43
2023-04-07T11:40:50.137Z,5.05
2023-04-07T11:43:19.846Z,5.30
2023-04-07T11:45:47.874Z,4.65
2023-04-07T11:48:28.110Z,4.70
2023-04-07T11:50:55.788Z,4.30
2023-04-07T11:53:28.645Z,4.57
2023-04-07T11:56:09.968Z,4.87
2023-04-07T11:58:38.532Z,4.10
2023-04-07T12:01:08.806Z,4.50
2023-04-07T12:03:38.227Z,4.70
2023-04-07T12:06:07.081Z,4.40
2023-04-07T12:08:39.247Z,4.13
2023-04-07T12:11:09.213Z,4.05
2023-04-07T12:13:37.433Z,3.92
2023-04-07T12:16:05.477Z,3.70
2023-04-07T12:18:33.319Z,3.92
2023-04-07T12:21:01.284Z,3.50
2023-04-07T12:23:28.969Z,3.20
2023-04-07T12:25:56.638Z,3.20
2023-04-07T12:28:25.557Z,3.35
2023-04-07T12:30:53.494Z,2.88
2023-04-07T12:33:21.276Z,3.10
2023-04-07T12:35:49.137Z,2.90
2023-04-07T12:38:16.843Z,3.28
2023-04-07T12:40:44.529Z,3.17
2023-04-07T12:43:12.035Z,3.10
2023-04-07T12:45:41.028Z,2.80
2023-04-07T12:48:08.647Z,2.70
2023-04-07T12:50:36.775Z,2.95
2023-04-07T12:53:05.263Z,2.85
2023-04-07T12:55:35.520Z,2.38
2023-04-07T12:58:03.385Z,3.20
2023-04-07T13:00:31.486Z,2.72
2023-04-07T13:03:00.614Z,2.90
2023-04-07T13:05:29.938Z,3.03
2023-04-07T13:07:57.411Z,2.70
2023-04-07T13:10:25.012Z,2.80
2023-04-07T13:12:53.115Z,2.60
2023-04-07T13:15:20.879Z,2.97
2023-04-07T13:17:48.419Z,2.70
2023-04-07T13:20:19.806Z,2.90
2023-04-07T13:22:54.025Z,2.40
2023-04-07T13:25:31.504Z,2.92
2023-04-07T13:27:59.722Z,2.75
2023-04-07T13:30:27.329Z,2.80
2023-04-07T13:32:54.992Z,3.00
2023-04-07T13:35:24.284Z,2.70
2023-04-07T13:37:51.950Z,3.20
2023-04-07T13:40:19.535Z,2.80
2023-04-07T13:42:47.102Z,2.90
2023-04-07T13:45:14.769Z,3.00
2023-04-07T13:47:42.349Z,3.00
2023-04-07T13:50:10.801Z,3.15
2023-04-07T13:52:39.671Z,2.92
2023-04-07T13:55:08.007Z,3.10
2023-04-07T13:57:35.746Z,3.58
2023-04-07T14:00:03.501Z,2.73
2023-04-07T14:02:36.791Z,3.47
2023-04-07T14:05:04.502Z,3.20
2023-04-07T14:07:32.002Z,3.25
2023-04-07T14:10:01.120Z,3.35
2023-04-07T14:12:28.643Z,3.43
2023-04-07T14:14:57.008Z,3.40
2023-04-07T14:17:24.746Z,3.20
2023-04-07T14:19:52.315Z,3.40
2023-04-07T14:22:19.906Z,3.45
2023-04-07T14:24:47.442Z,3.60
2023-04-07T14:27:20.719Z,3.30
2023-04-07T14:29:48.331Z,3.95
2023-04-07T14:32:16.193Z,3.92
2023-04-07T14:34:43.704Z,4.55
2023-04-07T14:37:12.045Z,4.10
2023-04-07T14:39:39.983Z,4.38
2023-04-07T14:42:07.560Z,4.22
2023-04-07T14:44:36.404Z,4.05
2023-04-07T14:47:03.954Z,4.30
2023-04-07T14:49:31.547Z,4.13
2023-04-07T14:51:59.094Z,4.30
2023-04-07T14:54:26.741Z,4.35
2023-04-07T14:56:54.291Z,3.78
2023-04-07T14:59:21.855Z,3.90
2023-04-07T15:01:52.276Z,3.73
2023-04-07T15:04:19.945Z,3.63
2023-04-07T15:06:47.677Z,3.38
2023-04-07T15:09:15.366Z,3.75
2023-04-07T15:11:42.932Z,4.18
2023-04-07T15:14:10.502Z,4.17
2023-04-07T15:16:38.158Z,3.95
2023-04-07T15:19:07.097Z,3.78
2023-04-07T15:21:34.633Z,4.00
2023-04-07T15:24:02.140Z,4.10
2023-04-07T15:26:29.658Z,3.97
2023-04-07T15:28:57.129Z,4.40
2023-04-07T15:31:26.939Z,4.45
2023-04-07T15:33:54.459Z,4.43
2023-04-07T15:36:23.312Z,4.15
2023-04-07T15:38:50.916Z,4.00
2023-04-07T15:41:18.454Z,4.18
2023-04-07T15:43:45.942Z,4.32
2023-04-07T15:46:13.497Z,4.18
2023-04-07T15:48:41.044Z,4.10
2023-04-07T15:51:08.614Z,4.00
2023-04-07T15:53:37.519Z,4.53
2023-04-07T15:56:05.250Z,3.85
2023-04-07T15:58:32.976Z,4.10
2023-04-07T16:01:01.118Z,4.10
2023-04-07T16:03:29.007Z,4.10
2023-04-07T16:05:56.992Z,3.95
2023-04-07T16:08:24.962Z,3.92
2023-04-07T16:10:53.810Z,4.10
2023-04-07T16:13:21.360Z,3.85
2023-04-07T16:15:48.857Z,3.90
2023-04-07T16:18:16.588Z,4.07
2023-04-07T16:20:44.154Z,4.30
2023-04-07T16:23:12.578Z,4.28
2023-04-07T16:25:40.393Z,4.55
2023-04-07T16:28:09.287Z,4.50
2023-04-07T16:30:37.001Z,5.85
2023-04-07T16:33:04.727Z,4.30
2023-04-07T16:35:32.534Z,4.25
2023-04-07T16:38:03.915Z,6.20
2023-04-07T16:40:31.694Z,4.83
2023-04-07T16:42:59.249Z,4.95
2023-04-07T16:45:28.199Z,5.07
2023-04-07T16:47:55.933Z,4.43
2023-04-07T16:50:23.870Z,4.53
2023-04-07T16:52:51.467Z,4.20
2023-04-07T16:55:19.102Z,5.45
2023-04-07T16:57:46.689Z,4.60
2023-04-07T17:00:14.747Z,4.93
2023-04-07T17:02:43.819Z,4.82
2023-04-07T17:05:11.421Z,4.60
2023-04-07T17:07:38.944Z,5.40
2023-04-07T17:10:07.585Z,4.93
2023-04-07T17:12:35.560Z,4.60
2023-04-07T17:15:03.065Z,4.13
2023-04-07T17:17:30.678Z,4.50
2023-04-07T17:19:59.811Z,5.00
2023-04-07T17:22:27.329Z,4.78
2023-04-07T17:24:54.831Z,4.63
2023-04-07T17:27:22.363Z,4.60
2023-04-07T17:29:49.887Z,5.07
2023-04-07T17:32:17.421Z,6.40
2023-04-07T17:34:44.964Z,6.50
2023-04-07T17:37:13.843Z,6.10
2023-04-07T17:39:41.619Z,6.55
2023-04-07T17:42:10.745Z,6.27
2023-04-07T17:44:38.311Z,6.22
2023-04-07T17:47:05.869Z,6.00
2023-04-07T17:49:33.594Z,7.50
2023-04-07T17:52:01.201Z,7.90
2023-04-07T17:54:30.084Z,7.27
2023-04-07T17:56:57.585Z,6.80
2023-04-07T17:59:25.157Z,5.40
2023-04-07T18:01:52.730Z,7.35
2023-04-07T18:04:21.041Z,5.55
2023-04-07T18:06:48.904Z,6.33
2023-04-07T18:09:16.461Z,6.15
2023-04-07T18:11:45.330Z,7.70
2023-04-07T18:14:12.853Z,6.35
2023-04-07T18:16:40.361Z,7.38
2023-04-07T18:19:07.863Z,8.33
2023-04-07T18:21:36.291Z,7.50
2023-04-07T18:24:03.847Z,7.72
2023-04-07T18:26:31.794Z,7.78
2023-04-07T18:29:01.416Z,8.57
2023-04-07T18:31:29.071Z,8.00
2023-04-07T18:33:56.569Z,8.15
2023-04-07T18:36:27.028Z,10.15
2023-04-07T18:38:54.655Z,9.35
2023-04-07T18:41:22.235Z,8.18
2023-04-07T18:43:49.950Z,8.17
2023-04-07T18:46:19.155Z,8.90
2023-04-07T18:48:46.712Z,8.55
2023-04-07T18:51:14.521Z,9.20
2023-04-07T18:53:42.072Z,8.90
2023-04-07T18:56:09.733Z,7.87
2023-04-07T18:58:43.611Z,7.55
2023-04-07T19:01:11.518Z,8.35
2023-04-07T19:03:40.624Z,7.88
2023-04-07T19:06:08.615Z,7.20
2023-04-07T19:08:36.998Z,8.20
2023-04-07T19:11:05.394Z,7.25
2023-04-07T19:13:33.028Z,7.43
2023-04-07T19:16:00.583Z,7.68
2023-04-07T19:18:29.201Z,7.63
2023-04-07T19:20:58.166Z,7.57
2023-04-07T19:23:26.014Z,7.70
2023-04-07T19:25:53.716Z,7.70
2023-04-07T19:28:21.753Z,6.90
2023-04-07T19:30:49.267Z,6.70
2023-04-07T19:33:16.849Z,6.90
2023-04-07T19:35:44.433Z,6.47
2023-04-07T19:38:13.291Z,6.28
2023-04-07T19:40:40.814Z,5.93
2023-04-07T19:43:08.371Z,5.60
2023-04-07T19:45:36.604Z,5.50
2023-04-07T19:48:04.321Z,5.63
2023-04-07T19:50:32.041Z,5.63
2023-04-07T19:52:59.548Z,5.70
2023-04-07T19:55:29.878Z,5.22
2023-04-07T19:57:57.462Z,4.87
2023-04-07T20:00:25.086Z,4.60
2023-04-07T20:02:52.914Z,4.40
2023-04-07T20:05:21.285Z,4.40
2023-04-07T20:07:48.829Z,4.20
2023-04-07T20:10:16.628Z,4.83
2023-04-07T20:12:45.575Z,5.10
2023-04-07T20:15:13.233Z,4.82
2023-04-07T20:17:41.137Z,5.45
2023-04-07T20:20:09.315Z,5.65
2023-04-07T20:22:36.897Z,5.43
2023-04-07T20:25:05.305Z,5.65
2023-04-07T20:27:33.471Z,5.72
2023-04-07T20:30:02.692Z,6.07
2023-04-07T20:32:30.284Z,6.30
2023-04-07T20:34:57.835Z,6.20
2023-04-07T20:37:26.174Z,6.63
2023-04-07T20:39:55.423Z,7.10
2023-04-07T20:42:23.099Z,6.90
2023-04-07T20:44:50.781Z,6.57
2023-04-07T20:47:19.601Z,6.43
2023-04-07T20:49:47.168Z,7.22
2023-04-07T20:52:14.741Z,7.30
2023-04-07T20:54:44.730Z,7.55
2023-04-07T20:57:12.282Z,7.97
2023-04-07T20:59:39.811Z,7.80
2023-04-07T21:02:08.024Z,7.90
2023-04-07T21:04:37.600Z,9.15
2023-04-07T21:07:05.277Z,9.35
2023-04-07T21:09:32.832Z,9.48
2023-04-07T21:12:03.291Z,8.53
2023-04-07T21:14:31.581Z,8.23
2023-04-07T21:16:59.308Z,9.32
2023-04-07T21:19:26.810Z,9.90
2023-04-07T21:21:55.706Z,9.45
2023-04-07T21:24:23.280Z,9.40
2023-04-07T21:26:53.792Z,8.70
2023-04-07T21:29:21.792Z,8.65
2023-04-07T21:31:49.438Z,7.82
2023-04-07T21:34:17.077Z,8.50
2023-04-07T21:36:44.724Z,8.50
2023-04-07T21:39:13.697Z,8.75
2023-04-07T21:41:41.853Z,7.10
2023-04-07T21:44:11.112Z,7.85
2023-04-07T21:46:38.724Z,8.05
2023-04-07T21:49:06.309Z,8.20
2023-04-07T21:51:34.179Z,8.05
2023-04-07T21:54:01.921Z,8.48
2023-04-07T21:56:30.791Z,8.15
2023-04-07T21:58:58.428Z,8.13
2023-04-07T22:01:27.009Z,8.10
2023-04-07T22:03:54.956Z,8.75
2023-04-07T22:06:22.819Z,8.48
2023-04-07T22:09:00.483Z,8.00
2023-04-07T22:11:28.947Z,7.78
2023-04-07T22:13:57.910Z,8.50
2023-04-07T22:16:25.632Z,8.57
2023-04-07T22:18:53.264Z,8.23
2023-04-07T22:21:21.117Z,8.48
2023-04-07T22:23:50.258Z,8.52
2023-04-07T22:26:18.348Z,7.83
2023-04-07T22:28:46.414Z,8.73
2023-04-07T22:31:15.394Z,8.40
2023-04-07T22:33:43.065Z,8.10
2023-04-07T22:36:10.727Z,8.40
2023-04-07T22:38:38.439Z,7.97
2023-04-07T22:41:06.226Z,8.18
2023-04-07T22:43:33.818Z,7.97
2023-04-07T22:46:01.466Z,8.35
2023-04-07T22:48:30.679Z,8.48
2023-04-07T22:50:58.372Z,8.63
2023-04-07T22:53:26.040Z,7.80
2023-04-07T22:55:53.711Z,7.70
2023-04-07T22:58:21.453Z,7.22
2023-04-07T23:00:49.030Z,7.18
2023-04-07T23:03:17.040Z,6.37
2023-04-07T23:05:45.989Z,7.03
2023-04-07T23:08:13.585Z,6.82
2023-04-07T23:10:41.123Z,7.28
2023-04-07T23:13:08.723Z,7.50
2023-04-07T23:15:36.688Z,6.23
2023-04-07T23:18:04.358Z,6.35
2023-04-07T23:20:31.929Z,6.90
2023-04-07T23:23:00.952Z,7.38
2023-04-07T23:25:28.678Z,7.03
2023-04-07T23:27:56.402Z,7.30
2023-04-07T23:30:23.986Z,7.70
2023-04-07T23:32:51.719Z,7.88
2023-04-07T23:35:19.623Z,7.40
2023-04-07T23:37:47.232Z,7.90
2023-04-07T23:40:16.284Z,7.67
2023-04-07T23:42:43.864Z,7.88
2023-04-07T23:45:12.194Z,8.23
2023-04-07T23:47:39.836Z,8.45
2023-04-07T23:50:08.849Z,7.50
2023-04-07T23:52:36.525Z,7.50
2023-04-07T23:55:04.351Z,7.95
2023-04-07T23:57:33.271Z,7.43
